sensor_id;sensor_type;location;lat;lon;timestamp;P1;durP1;ratioP1;P2;durP2;ratioP2
52274;SDS011;38228;50.940;4.024;2022-09-30T00:01:39;20.75;;;14.85;;
52274;SDS011;38228;50.940;4.024;2022-09-30T00:04:05;21.17;;;14.93;;
52274;SDS011;38228;50.940;4.024;2022-09-30T00:06:34;19.13;;;14.15;;
52274;SDS011;38228;50.940;4.024;2022-09-30T00:08:59;24.10;;;15.50;;
52274;SDS011;38228;50.940;4.024;2022-09-30T00:11:30;19.75;;;13.95;;
52274;SDS011;38228;50.940;4.024;2022-09-30T00:13:58;20.27;;;16.02;;
52274;SDS011;38228;50.940;4.024;2022-09-30T00:16:26;16.98;;;13.55;;
52274;SDS011;38228;50.940;4.024;2022-09-30T00:18:57;20.40;;;14.82;;
52274;SDS011;38228;50.940;4.024;2022-09-30T00:21:24;23.92;;;15.60;;
52274;SDS011;38228;50.940;4.024;2022-09-30T00:23:52;20.30;;;14.50;;
52274;SDS011;38228;50.940;4.024;2022-09-30T00:26:19;20.70;;;14.48;;
52274;SDS011;38228;50.940;4.024;2022-09-30T00:28:48;20.63;;;14.65;;
52274;SDS011;38228;50.940;4.024;2022-09-30T00:31:16;19.00;;;13.93;;
52274;SDS011;38228;50.940;4.024;2022-09-30T00:33:43;21.42;;;14.35;;
52274;SDS011;38228;50.940;4.024;2022-09-30T00:36:29;18.88;;;13.88;;
52274;SDS011;38228;50.940;4.024;2022-09-30T00:38:55;23.98;;;14.93;;
52274;SDS011;38228;50.940;4.024;2022-09-30T00:41:21;17.50;;;13.32;;
52274;SDS011;38228;50.940;4.024;2022-09-30T00:43:47;18.38;;;13.63;;
52274;SDS011;38228;50.940;4.024;2022-09-30T00:46:30;20.42;;;15.10;;
52274;SDS011;38228;50.940;4.024;2022-09-30T00:49:20;20.63;;;14.70;;
52274;SDS011;38228;50.940;4.024;2022-09-30T00:51:50;22.25;;;14.32;;
52274;SDS011;38228;50.940;4.024;2022-09-30T00:54:23;21.98;;;14.27;;
52274;SDS011;38228;50.940;4.024;2022-09-30T00:56:54;18.15;;;13.70;;
52274;SDS011;38228;50.940;4.024;2022-09-30T00:59:29;18.73;;;14.45;;
52274;SDS011;38228;50.940;4.024;2022-09-30T01:02:02;20.38;;;15.15;;
52274;SDS011;38228;50.940;4.024;2022-09-30T01:04:30;21.20;;;15.35;;
52274;SDS011;38228;50.940;4.024;2022-09-30T01:07:06;21.33;;;15.30;;
52274;SDS011;38228;50.940;4.024;2022-09-30T01:09:33;23.10;;;15.25;;
52274;SDS011;38228;50.940;4.024;2022-09-30T01:12:02;21.42;;;14.95;;
52274;SDS011;38228;50.940;4.024;2022-09-30T01:14:40;21.17;;;13.77;;
52274;SDS011;38228;50.940;4.024;2022-09-30T01:19:54;22.33;;;14.88;;
52274;SDS011;38228;50.940;4.024;2022-09-30T01:22:41;19.40;;;14.45;;
52274;SDS011;38228;50.940;4.024;2022-09-30T01:31:06;21.77;;;14.95;;
52274;SDS011;38228;50.940;4.024;2022-09-30T01:37:06;21.95;;;15.20;;
52274;SDS011;38228;50.940;4.024;2022-09-30T01:48:02;20.45;;;15.45;;
52274;SDS011;38228;50.940;4.024;2022-09-30T01:50:40;21.15;;;15.02;;
52274;SDS011;38228;50.940;4.024;2022-09-30T01:53:15;21.50;;;15.52;;
52274;SDS011;38228;50.940;4.024;2022-09-30T01:58:25;23.95;;;15.75;;
52274;SDS011;38228;50.940;4.024;2022-09-30T02:00:54;18.92;;;15.23;;
52274;SDS011;38228;50.940;4.024;2022-09-30T02:03:29;24.33;;;16.77;;
52274;SDS011;38228;50.940;4.024;2022-09-30T02:06:03;20.33;;;15.77;;
52274;SDS011;38228;50.940;4.024;2022-09-30T02:11:26;25.50;;;15.90;;
52274;SDS011;38228;50.940;4.024;2022-09-30T02:14:11;21.13;;;15.23;;
52274;SDS011;38228;50.940;4.024;2022-09-30T02:16:43;25.33;;;16.48;;
52274;SDS011;38228;50.940;4.024;2022-09-30T02:21:59;22.88;;;16.17;;
52274;SDS011;38228;50.940;4.024;2022-09-30T02:24:32;20.88;;;15.98;;
52274;SDS011;38228;50.940;4.024;2022-09-30T02:27:02;23.88;;;16.63;;
52274;SDS011;38228;50.940;4.024;2022-09-30T02:29:34;23.27;;;17.02;;
52274;SDS011;38228;50.940;4.024;2022-09-30T02:32:04;24.35;;;17.08;;
52274;SDS011;38228;50.940;4.024;2022-09-30T02:34:38;24.45;;;17.52;;
52274;SDS011;38228;50.940;4.024;2022-09-30T02:37:09;22.88;;;17.25;;
52274;SDS011;38228;50.940;4.024;2022-09-30T02:39:57;23.23;;;17.10;;
52274;SDS011;38228;50.940;4.024;2022-09-30T02:42:31;21.67;;;16.35;;
52274;SDS011;38228;50.940;4.024;2022-09-30T02:45:02;23.63;;;16.27;;
52274;SDS011;38228;50.940;4.024;2022-09-30T02:50:54;26.48;;;18.33;;
52274;SDS011;38228;50.940;4.024;2022-09-30T02:56:35;23.95;;;18.52;;
52274;SDS011;38228;50.940;4.024;2022-09-30T02:59:15;25.00;;;18.40;;
52274;SDS011;38228;50.940;4.024;2022-09-30T03:01:40;21.70;;;17.20;;
52274;SDS011;38228;50.940;4.024;2022-09-30T03:04:08;24.15;;;16.77;;
52274;SDS011;38228;50.940;4.024;2022-09-30T03:06:37;20.50;;;15.52;;
52274;SDS011;38228;50.940;4.024;2022-09-30T03:09:03;21.35;;;17.15;;
52274;SDS011;38228;50.940;4.024;2022-09-30T03:11:29;26.17;;;17.17;;
52274;SDS011;38228;50.940;4.024;2022-09-30T03:16:51;25.95;;;17.70;;
52274;SDS011;38228;50.940;4.024;2022-09-30T03:20:17;24.67;;;18.27;;
52274;SDS011;38228;50.940;4.024;2022-09-30T03:27:58;23.85;;;18.65;;
52274;SDS011;38228;50.940;4.024;2022-09-30T03:30:37;27.67;;;18.90;;
52274;SDS011;38228;50.940;4.024;2022-09-30T03:33:20;25.58;;;18.83;;
52274;SDS011;38228;50.940;4.024;2022-09-30T03:41:31;25.00;;;18.80;;
52274;SDS011;38228;50.940;4.024;2022-09-30T03:44:31;24.90;;;18.70;;
52274;SDS011;38228;50.940;4.024;2022-09-30T03:47:11;25.52;;;18.77;;
52274;SDS011;38228;50.940;4.024;2022-09-30T03:49:50;25.67;;;19.17;;
52274;SDS011;38228;50.940;4.024;2022-09-30T03:52:19;24.30;;;19.20;;
52274;SDS011;38228;50.940;4.024;2022-09-30T03:54:54;24.35;;;18.55;;
52274;SDS011;38228;50.940;4.024;2022-09-30T03:57:24;27.10;;;20.48;;
52274;SDS011;38228;50.940;4.024;2022-09-30T03:59:53;24.17;;;18.08;;
52274;SDS011;38228;50.940;4.024;2022-09-30T04:02:19;25.60;;;19.15;;
52274;SDS011;38228;50.940;4.024;2022-09-30T04:04:45;29.63;;;21.02;;
52274;SDS011;38228;50.940;4.024;2022-09-30T04:07:11;28.10;;;21.55;;
52274;SDS011;38228;50.940;4.024;2022-09-30T04:09:38;30.25;;;21.38;;
52274;SDS011;38228;50.940;4.024;2022-09-30T04:12:05;27.92;;;20.55;;
52274;SDS011;38228;50.940;4.024;2022-09-30T04:14:31;25.67;;;20.95;;
52274;SDS011;38228;50.940;4.024;2022-09-30T04:16:58;27.83;;;21.20;;
52274;SDS011;38228;50.940;4.024;2022-09-30T04:19:23;28.60;;;21.85;;
52274;SDS011;38228;50.940;4.024;2022-09-30T04:21:50;29.13;;;21.83;;
52274;SDS011;38228;50.940;4.024;2022-09-30T04:24:17;29.63;;;21.80;;
52274;SDS011;38228;50.940;4.024;2022-09-30T04:26:43;30.58;;;22.95;;
52274;SDS011;38228;50.940;4.024;2022-09-30T04:29:09;29.88;;;22.65;;
52274;SDS011;38228;50.940;4.024;2022-09-30T04:31:34;31.73;;;22.92;;
52274;SDS011;38228;50.940;4.024;2022-09-30T04:34:00;31.17;;;22.80;;
52274;SDS011;38228;50.940;4.024;2022-09-30T04:36:26;31.98;;;23.00;;
52274;SDS011;38228;50.940;4.024;2022-09-30T04:38:51;30.35;;;22.75;;
52274;SDS011;38228;50.940;4.024;2022-09-30T04:41:17;34.88;;;24.48;;
52274;SDS011;38228;50.940;4.024;2022-09-30T04:43:44;31.77;;;24.73;;
52274;SDS011;38228;50.940;4.024;2022-09-30T04:46:11;29.05;;;22.13;;
52274;SDS011;38228;50.940;4.024;2022-09-30T04:48:37;31.20;;;22.75;;
52274;SDS011;38228;50.940;4.024;2022-09-30T04:51:03;31.85;;;24.90;;
52274;SDS011;38228;50.940;4.024;2022-09-30T04:53:29;33.97;;;25.08;;
52274;SDS011;38228;50.940;4.024;2022-09-30T04:55:58;29.75;;;21.90;;
52274;SDS011;38228;50.940;4.024;2022-09-30T04:58:25;31.65;;;24.10;;
52274;SDS011;38228;50.940;4.024;2022-09-30T05:00:58;30.42;;;23.27;;
52274;SDS011;38228;50.940;4.024;2022-09-30T05:03:25;31.80;;;23.45;;
52274;SDS011;38228;50.940;4.024;2022-09-30T05:05:51;34.28;;;23.67;;
52274;SDS011;38228;50.940;4.024;2022-09-30T05:08:17;31.30;;;23.60;;
52274;SDS011;38228;50.940;4.024;2022-09-30T05:10:42;31.83;;;22.77;;
52274;SDS011;38228;50.940;4.024;2022-09-30T05:13:08;30.65;;;23.08;;
52274;SDS011;38228;50.940;4.024;2022-09-30T05:15:34;31.20;;;23.50;;
52274;SDS011;38228;50.940;4.024;2022-09-30T05:18:00;31.85;;;24.02;;
52274;SDS011;38228;50.940;4.024;2022-09-30T05:20:25;35.22;;;25.05;;
52274;SDS011;38228;50.940;4.024;2022-09-30T05:22:54;27.83;;;22.52;;
52274;SDS011;38228;50.940;4.024;2022-09-30T05:25:20;38.42;;;24.85;;
52274;SDS011;38228;50.940;4.024;2022-09-30T05:27:48;32.80;;;23.70;;
52274;SDS011;38228;50.940;4.024;2022-09-30T05:30:14;32.38;;;23.15;;
52274;SDS011;38228;50.940;4.024;2022-09-30T05:32:40;29.58;;;22.27;;
52274;SDS011;38228;50.940;4.024;2022-09-30T05:35:05;32.63;;;22.35;;
52274;SDS011;38228;50.940;4.024;2022-09-30T05:37:32;31.38;;;22.85;;
52274;SDS011;38228;50.940;4.024;2022-09-30T05:39:58;31.65;;;24.67;;
52274;SDS011;38228;50.940;4.024;2022-09-30T05:42:25;35.97;;;25.92;;
52274;SDS011;38228;50.940;4.024;2022-09-30T05:44:51;37.67;;;25.38;;
52274;SDS011;38228;50.940;4.024;2022-09-30T05:47:17;42.47;;;26.42;;
52274;SDS011;38228;50.940;4.024;2022-09-30T05:49:42;32.80;;;24.58;;
52274;SDS011;38228;50.940;4.024;2022-09-30T05:52:09;36.83;;;25.10;;
52274;SDS011;38228;50.940;4.024;2022-09-30T05:54:35;33.38;;;25.08;;
52274;SDS011;38228;50.940;4.024;2022-09-30T05:57:01;39.30;;;25.58;;
52274;SDS011;38228;50.940;4.024;2022-09-30T05:59:26;39.47;;;25.25;;
52274;SDS011;38228;50.940;4.024;2022-09-30T06:01:52;34.72;;;26.33;;
52274;SDS011;38228;50.940;4.024;2022-09-30T06:04:18;35.95;;;24.45;;
52274;SDS011;38228;50.940;4.024;2022-09-30T06:06:43;35.35;;;24.35;;
52274;SDS011;38228;50.940;4.024;2022-09-30T06:09:09;37.70;;;26.55;;
52274;SDS011;38228;50.940;4.024;2022-09-30T06:11:35;39.80;;;26.83;;
52274;SDS011;38228;50.940;4.024;2022-09-30T06:14:00;40.95;;;26.05;;
52274;SDS011;38228;50.940;4.024;2022-09-30T06:16:26;38.53;;;26.45;;
52274;SDS011;38228;50.940;4.024;2022-09-30T06:18:52;37.17;;;26.52;;
52274;SDS011;38228;50.940;4.024;2022-09-30T06:21:18;39.78;;;24.95;;
52274;SDS011;38228;50.940;4.024;2022-09-30T06:23:44;35.55;;;25.35;;
52274;SDS011;38228;50.940;4.024;2022-09-30T06:26:11;31.48;;;24.25;;
52274;SDS011;38228;50.940;4.024;2022-09-30T06:28:38;39.17;;;24.90;;
52274;SDS011;38228;50.940;4.024;2022-09-30T06:31:04;35.38;;;24.10;;
52274;SDS011;38228;50.940;4.024;2022-09-30T06:33:31;33.60;;;23.98;;
52274;SDS011;38228;50.940;4.024;2022-09-30T06:35:57;33.58;;;23.42;;
52274;SDS011;38228;50.940;4.024;2022-09-30T06:38:23;33.42;;;23.35;;
52274;SDS011;38228;50.940;4.024;2022-09-30T06:40:48;34.60;;;22.45;;
52274;SDS011;38228;50.940;4.024;2022-09-30T06:43:15;34.13;;;22.63;;
52274;SDS011;38228;50.940;4.024;2022-09-30T06:45:41;31.17;;;23.15;;
52274;SDS011;38228;50.940;4.024;2022-09-30T06:48:09;29.73;;;22.27;;
52274;SDS011;38228;50.940;4.024;2022-09-30T06:50:34;32.38;;;22.08;;
52274;SDS011;38228;50.940;4.024;2022-09-30T06:53:01;33.03;;;23.08;;
52274;SDS011;38228;50.940;4.024;2022-09-30T06:55:30;31.80;;;22.20;;
52274;SDS011;38228;50.940;4.024;2022-09-30T06:57:56;32.63;;;23.67;;
52274;SDS011;38228;50.940;4.024;2022-09-30T07:00:22;35.35;;;23.25;;
52274;SDS011;38228;50.940;4.024;2022-09-30T07:02:49;33.10;;;23.30;;
52274;SDS011;38228;50.940;4.024;2022-09-30T07:05:14;31.10;;;23.23;;
52274;SDS011;38228;50.940;4.024;2022-09-30T07:07:41;35.22;;;23.90;;
52274;SDS011;38228;50.940;4.024;2022-09-30T07:10:08;32.55;;;23.80;;
52274;SDS011;38228;50.940;4.024;2022-09-30T07:12:34;30.00;;;23.20;;
52274;SDS011;38228;50.940;4.024;2022-09-30T07:15:00;30.92;;;21.95;;
52274;SDS011;38228;50.940;4.024;2022-09-30T07:17:26;41.95;;;35.60;;
52274;SDS011;38228;50.940;4.024;2022-09-30T07:19:52;28.92;;;23.20;;
52274;SDS011;38228;50.940;4.024;2022-09-30T07:22:18;32.65;;;22.20;;
52274;SDS011;38228;50.940;4.024;2022-09-30T07:24:58;26.35;;;19.98;;
52274;SDS011;38228;50.940;4.024;2022-09-30T07:27:28;26.85;;;19.30;;
52274;SDS011;38228;50.940;4.024;2022-09-30T07:29:56;28.20;;;18.70;;
52274;SDS011;38228;50.940;4.024;2022-09-30T07:32:23;24.00;;;18.00;;
52274;SDS011;38228;50.940;4.024;2022-09-30T07:34:49;25.08;;;18.95;;
52274;SDS011;38228;50.940;4.024;2022-09-30T07:37:16;27.50;;;19.20;;
52274;SDS011;38228;50.940;4.024;2022-09-30T07:39:44;27.27;;;19.65;;
52274;SDS011;38228;50.940;4.024;2022-09-30T07:42:11;25.65;;;18.70;;
52274;SDS011;38228;50.940;4.024;2022-09-30T07:44:38;32.90;;;18.55;;
52274;SDS011;38228;50.940;4.024;2022-09-30T07:47:06;22.23;;;19.27;;
52274;SDS011;38228;50.940;4.024;2022-09-30T07:49:33;26.75;;;18.90;;
52274;SDS011;38228;50.940;4.024;2022-09-30T07:51:59;22.90;;;18.70;;
52274;SDS011;38228;50.940;4.024;2022-09-30T07:54:28;26.70;;;18.73;;
52274;SDS011;38228;50.940;4.024;2022-09-30T07:56:55;26.52;;;18.80;;
52274;SDS011;38228;50.940;4.024;2022-09-30T07:59:22;29.98;;;18.77;;
52274;SDS011;38228;50.940;4.024;2022-09-30T08:01:49;22.90;;;17.40;;
52274;SDS011;38228;50.940;4.024;2022-09-30T08:04:15;28.85;;;17.13;;
52274;SDS011;38228;50.940;4.024;2022-09-30T08:06:48;22.05;;;16.52;;
52274;SDS011;38228;50.940;4.024;2022-09-30T08:09:24;20.90;;;16.13;;
52274;SDS011;38228;50.940;4.024;2022-09-30T08:11:52;24.65;;;16.33;;
52274;SDS011;38228;50.940;4.024;2022-09-30T08:14:19;24.90;;;16.45;;
52274;SDS011;38228;50.940;4.024;2022-09-30T08:16:47;20.60;;;16.08;;
52274;SDS011;38228;50.940;4.024;2022-09-30T08:19:14;21.52;;;16.38;;
52274;SDS011;38228;50.940;4.024;2022-09-30T08:21:42;20.20;;;15.07;;
52274;SDS011;38228;50.940;4.024;2022-09-30T08:24:08;17.45;;;13.65;;
52274;SDS011;38228;50.940;4.024;2022-09-30T08:26:34;19.15;;;14.15;;
52274;SDS011;38228;50.940;4.024;2022-09-30T08:29:00;19.77;;;14.40;;
52274;SDS011;38228;50.940;4.024;2022-09-30T08:31:26;23.65;;;14.50;;
52274;SDS011;38228;50.940;4.024;2022-09-30T08:33:52;18.55;;;13.60;;
52274;SDS011;38228;50.940;4.024;2022-09-30T08:36:24;23.35;;;14.45;;
52274;SDS011;38228;50.940;4.024;2022-09-30T08:38:51;23.90;;;13.38;;
52274;SDS011;38228;50.940;4.024;2022-09-30T08:41:22;27.30;;;13.88;;
52274;SDS011;38228;50.940;4.024;2022-09-30T08:50:01;18.45;;;12.45;;
52274;SDS011;38228;50.940;4.024;2022-09-30T08:52:51;18.47;;;12.37;;
52274;SDS011;38228;50.940;4.024;2022-09-30T08:55:24;20.17;;;11.60;;
52274;SDS011;38228;50.940;4.024;2022-09-30T08:57:54;20.48;;;10.98;;
52274;SDS011;38228;50.940;4.024;2022-09-30T09:00:21;22.00;;;11.25;;
52274;SDS011;38228;50.940;4.024;2022-09-30T09:02:51;23.08;;;11.23;;
52274;SDS011;38228;50.940;4.024;2022-09-30T09:05:44;19.58;;;10.93;;
52274;SDS011;38228;50.940;4.024;2022-09-30T09:16:58;16.60;;;10.10;;
52274;SDS011;38228;50.940;4.024;2022-09-30T09:19:32;17.02;;;9.73;;
52274;SDS011;38228;50.940;4.024;2022-09-30T09:22:06;15.15;;;9.15;;
52274;SDS011;38228;50.940;4.024;2022-09-30T09:24:36;15.38;;;9.00;;
52274;SDS011;38228;50.940;4.024;2022-09-30T09:27:36;14.77;;;9.23;;
52274;SDS011;38228;50.940;4.024;2022-09-30T09:30:20;18.08;;;8.93;;
52274;SDS011;38228;50.940;4.024;2022-09-30T09:32:52;14.00;;;8.32;;
52274;SDS011;38228;50.940;4.024;2022-09-30T09:51:49;10.48;;;6.75;;
52274;SDS011;38228;50.940;4.024;2022-09-30T09:54:22;12.85;;;6.93;;
52274;SDS011;38228;50.940;4.024;2022-09-30T09:56:52;15.70;;;7.80;;
52274;SDS011;38228;50.940;4.024;2022-09-30T09:59:18;13.65;;;7.57;;
52274;SDS011;38228;50.940;4.024;2022-09-30T10:01:45;12.25;;;7.13;;
52274;SDS011;38228;50.940;4.024;2022-09-30T10:04:23;14.15;;;6.78;;
52274;SDS011;38228;50.940;4.024;2022-09-30T10:06:55;16.17;;;7.03;;
52274;SDS011;38228;50.940;4.024;2022-09-30T10:09:27;11.00;;;6.80;;
52274;SDS011;38228;50.940;4.024;2022-09-30T10:14:35;10.30;;;7.18;;
52274;SDS011;38228;50.940;4.024;2022-09-30T10:17:19;17.08;;;8.07;;
52274;SDS011;38228;50.940;4.024;2022-09-30T10:19:51;16.10;;;9.50;;
52274;SDS011;38228;50.940;4.024;2022-09-30T10:22:22;10.70;;;7.30;;
52274;SDS011;38228;50.940;4.024;2022-09-30T10:24:57;14.70;;;7.20;;
52274;SDS011;38228;50.940;4.024;2022-09-30T10:28:00;13.45;;;7.60;;
52274;SDS011;38228;50.940;4.024;2022-09-30T10:33:02;10.68;;;6.93;;
52274;SDS011;38228;50.940;4.024;2022-09-30T10:35:35;10.40;;;6.85;;
52274;SDS011;38228;50.940;4.024;2022-09-30T10:38:33;13.23;;;6.43;;
52274;SDS011;38228;50.940;4.024;2022-09-30T10:41:01;14.30;;;6.90;;
52274;SDS011;38228;50.940;4.024;2022-09-30T10:43:33;11.43;;;7.25;;
52274;SDS011;38228;50.940;4.024;2022-09-30T10:46:03;9.80;;;7.07;;
52274;SDS011;38228;50.940;4.024;2022-09-30T10:48:33;11.50;;;6.47;;
52274;SDS011;38228;50.940;4.024;2022-09-30T10:51:00;12.25;;;7.30;;
52274;SDS011;38228;50.940;4.024;2022-09-30T10:53:26;9.82;;;6.63;;
52274;SDS011;38228;50.940;4.024;2022-09-30T10:55:53;10.35;;;6.72;;
52274;SDS011;38228;50.940;4.024;2022-09-30T11:01:16;11.13;;;7.70;;
52274;SDS011;38228;50.940;4.024;2022-09-30T11:06:32;12.68;;;7.70;;
52274;SDS011;38228;50.940;4.024;2022-09-30T11:09:04;9.13;;;7.13;;
52274;SDS011;38228;50.940;4.024;2022-09-30T11:11:42;9.80;;;6.93;;
52274;SDS011;38228;50.940;4.024;2022-09-30T11:22:13;9.63;;;6.22;;
52274;SDS011;38228;50.940;4.024;2022-09-30T11:25:02;9.52;;;6.10;;
52274;SDS011;38228;50.940;4.024;2022-09-30T11:27:52;9.07;;;6.05;;
52274;SDS011;38228;50.940;4.024;2022-09-30T11:30:23;9.32;;;5.75;;
52274;SDS011;38228;50.940;4.024;2022-09-30T11:41:40;11.63;;;5.28;;
52274;SDS011;38228;50.940;4.024;2022-09-30T12:00:32;8.50;;;4.95;;
52274;SDS011;38228;50.940;4.024;2022-09-30T12:03:06;11.30;;;5.60;;
52274;SDS011;38228;50.940;4.024;2022-09-30T12:05:44;7.45;;;5.10;;
52274;SDS011;38228;50.940;4.024;2022-09-30T12:10:54;12.30;;;5.47;;
52274;SDS011;38228;50.940;4.024;2022-09-30T12:13:32;13.50;;;4.95;;
52274;SDS011;38228;50.940;4.024;2022-09-30T12:16:05;11.50;;;5.60;;
52274;SDS011;38228;50.940;4.024;2022-09-30T12:18:37;9.57;;;5.38;;
52274;SDS011;38228;50.940;4.024;2022-09-30T12:23:45;5.47;;;4.32;;
52274;SDS011;38228;50.940;4.024;2022-09-30T12:26:15;9.55;;;4.70;;
52274;SDS011;38228;50.940;4.024;2022-09-30T12:31:45;4.68;;;3.97;;
52274;SDS011;38228;50.940;4.024;2022-09-30T12:42:13;9.98;;;5.40;;
52274;SDS011;38228;50.940;4.024;2022-09-30T12:47:39;8.13;;;5.43;;
52274;SDS011;38228;50.940;4.024;2022-09-30T12:52:44;8.23;;;4.65;;
52274;SDS011;38228;50.940;4.024;2022-09-30T12:55:29;6.28;;;4.55;;
52274;SDS011;38228;50.940;4.024;2022-09-30T12:58:02;8.02;;;4.93;;
52274;SDS011;38228;50.940;4.024;2022-09-30T13:00:29;8.38;;;4.80;;
52274;SDS011;38228;50.940;4.024;2022-09-30T13:03:08;8.55;;;4.57;;
52274;SDS011;38228;50.940;4.024;2022-09-30T13:10:44;7.78;;;4.75;;
52274;SDS011;38228;50.940;4.024;2022-09-30T13:13:24;7.70;;;5.40;;
52274;SDS011;38228;50.940;4.024;2022-09-30T13:15:55;6.45;;;4.72;;
52274;SDS011;38228;50.940;4.024;2022-09-30T13:31:26;4.65;;;3.70;;
52274;SDS011;38228;50.940;4.024;2022-09-30T13:47:44;4.13;;;3.30;;
52274;SDS011;38228;50.940;4.024;2022-09-30T13:50:14;7.72;;;4.10;;
52274;SDS011;38228;50.940;4.024;2022-09-30T13:52:54;5.25;;;3.17;;
52274;SDS011;38228;50.940;4.024;2022-09-30T13:55:31;7.57;;;3.40;;
52274;SDS011;38228;50.940;4.024;2022-09-30T14:14:12;5.00;;;2.42;;
52274;SDS011;38228;50.940;4.024;2022-09-30T14:17:10;4.07;;;2.30;;
52274;SDS011;38228;50.940;4.024;2022-09-30T14:22:39;2.33;;;1.67;;
52274;SDS011;38228;50.940;4.024;2022-09-30T14:25:12;2.90;;;1.70;;
52274;SDS011;38228;50.940;4.024;2022-09-30T14:27:43;2.00;;;1.80;;
52274;SDS011;38228;50.940;4.024;2022-09-30T14:32:51;2.42;;;1.67;;
52274;SDS011;38228;50.940;4.024;2022-09-30T14:35:20;4.20;;;2.05;;
52274;SDS011;38228;50.940;4.024;2022-09-30T14:40:24;3.17;;;2.08;;
52274;SDS011;38228;50.940;4.024;2022-09-30T14:42:56;3.03;;;2.28;;
52274;SDS011;38228;50.940;4.024;2022-09-30T14:45:30;6.68;;;2.10;;
52274;SDS011;38228;50.940;4.024;2022-09-30T14:48:00;3.85;;;1.92;;
52274;SDS011;38228;50.940;4.024;2022-09-30T14:50:42;3.63;;;1.95;;
52274;SDS011;38228;50.940;4.024;2022-09-30T14:56:00;4.30;;;1.80;;
52274;SDS011;38228;50.940;4.024;2022-09-30T14:58:29;3.30;;;1.90;;
52274;SDS011;38228;50.940;4.024;2022-09-30T15:01:04;4.90;;;2.15;;
52274;SDS011;38228;50.940;4.024;2022-09-30T15:03:38;2.67;;;1.73;;
52274;SDS011;38228;50.940;4.024;2022-09-30T15:06:19;5.18;;;1.50;;
52274;SDS011;38228;50.940;4.024;2022-09-30T15:08:48;4.28;;;1.40;;
52274;SDS011;38228;50.940;4.024;2022-09-30T15:11:17;4.47;;;1.90;;
52274;SDS011;38228;50.940;4.024;2022-09-30T15:13:50;3.30;;;1.65;;
52274;SDS011;38228;50.940;4.024;2022-09-30T15:16:23;3.45;;;1.83;;
52274;SDS011;38228;50.940;4.024;2022-09-30T15:18:50;7.15;;;2.35;;
52274;SDS011;38228;50.940;4.024;2022-09-30T15:21:18;5.47;;;2.33;;
52274;SDS011;38228;50.940;4.024;2022-09-30T15:23:49;4.75;;;2.00;;
52274;SDS011;38228;50.940;4.024;2022-09-30T15:26:18;7.03;;;2.30;;
52274;SDS011;38228;50.940;4.024;2022-09-30T15:28:46;6.82;;;2.72;;
52274;SDS011;38228;50.940;4.024;2022-09-30T15:31:25;5.25;;;2.30;;
52274;SDS011;38228;50.940;4.024;2022-09-30T15:34:06;4.00;;;2.03;;
52274;SDS011;38228;50.940;4.024;2022-09-30T15:36:42;6.90;;;2.35;;
52274;SDS011;38228;50.940;4.024;2022-09-30T15:39:16;4.75;;;2.33;;
52274;SDS011;38228;50.940;4.024;2022-09-30T15:41:47;5.65;;;2.20;;
52274;SDS011;38228;50.940;4.024;2022-09-30T15:44:16;4.28;;;2.25;;
52274;SDS011;38228;50.940;4.024;2022-09-30T15:46:59;4.43;;;2.33;;
52274;SDS011;38228;50.940;4.024;2022-09-30T15:49:42;3.92;;;2.30;;
52274;SDS011;38228;50.940;4.024;2022-09-30T15:52:26;2.65;;;2.20;;
52274;SDS011;38228;50.940;4.024;2022-09-30T15:54:54;5.57;;;2.60;;
52274;SDS011;38228;50.940;4.024;2022-09-30T16:05:45;3.00;;;1.98;;
52274;SDS011;38228;50.940;4.024;2022-09-30T16:08:15;4.30;;;1.60;;
52274;SDS011;38228;50.940;4.024;2022-09-30T16:10:54;2.72;;;1.70;;
52274;SDS011;38228;50.940;4.024;2022-09-30T16:13:23;2.10;;;1.48;;
52274;SDS011;38228;50.940;4.024;2022-09-30T16:15:52;3.53;;;1.35;;
52274;SDS011;38228;50.940;4.024;2022-09-30T16:18:22;3.60;;;1.60;;
52274;SDS011;38228;50.940;4.024;2022-09-30T16:21:00;5.22;;;1.50;;
52274;SDS011;38228;50.940;4.024;2022-09-30T16:23:35;2.60;;;1.40;;
52274;SDS011;38228;50.940;4.024;2022-09-30T16:26:12;3.88;;;1.55;;
52274;SDS011;38228;50.940;4.024;2022-09-30T16:28:43;3.53;;;1.40;;
52274;SDS011;38228;50.940;4.024;2022-09-30T16:31:09;4.28;;;1.70;;
52274;SDS011;38228;50.940;4.024;2022-09-30T16:33:36;2.40;;;1.48;;
52274;SDS011;38228;50.940;4.024;2022-09-30T16:36:09;2.88;;;1.63;;
52274;SDS011;38228;50.940;4.024;2022-09-30T16:38:35;5.25;;;1.80;;
52274;SDS011;38228;50.940;4.024;2022-09-30T16:41:02;2.67;;;1.40;;
52274;SDS011;38228;50.940;4.024;2022-09-30T16:43:28;4.53;;;2.15;;
52274;SDS011;38228;50.940;4.024;2022-09-30T16:45:55;4.60;;;1.83;;
52274;SDS011;38228;50.940;4.024;2022-09-30T16:48:24;4.75;;;1.80;;
52274;SDS011;38228;50.940;4.024;2022-09-30T16:51:03;3.35;;;1.80;;
52274;SDS011;38228;50.940;4.024;2022-09-30T16:53:30;5.03;;;2.08;;
52274;SDS011;38228;50.940;4.024;2022-09-30T16:55:56;3.35;;;2.08;;
52274;SDS011;38228;50.940;4.024;2022-09-30T16:58:22;4.85;;;2.38;;
52274;SDS011;38228;50.940;4.024;2022-09-30T17:00:47;5.97;;;2.38;;
52274;SDS011;38228;50.940;4.024;2022-09-30T17:03:14;6.55;;;2.13;;
52274;SDS011;38228;50.940;4.024;2022-09-30T17:05:41;3.72;;;1.95;;
52274;SDS011;38228;50.940;4.024;2022-09-30T17:08:10;4.35;;;2.00;;
52274;SDS011;38228;50.940;4.024;2022-09-30T17:10:40;5.40;;;1.98;;
52274;SDS011;38228;50.940;4.024;2022-09-30T17:13:07;6.72;;;3.42;;
52274;SDS011;38228;50.940;4.024;2022-09-30T17:15:32;6.03;;;3.17;;
52274;SDS011;38228;50.940;4.024;2022-09-30T17:18:03;7.90;;;4.20;;
52274;SDS011;38228;50.940;4.024;2022-09-30T17:20:31;5.65;;;3.00;;
52274;SDS011;38228;50.940;4.024;2022-09-30T17:22:56;3.80;;;1.95;;
52274;SDS011;38228;50.940;4.024;2022-09-30T17:25:22;3.25;;;1.90;;
52274;SDS011;38228;50.940;4.024;2022-09-30T17:27:48;10.75;;;6.57;;
52274;SDS011;38228;50.940;4.024;2022-09-30T17:30:14;4.15;;;2.10;;
52274;SDS011;38228;50.940;4.024;2022-09-30T17:32:40;3.60;;;2.78;;
52274;SDS011;38228;50.940;4.024;2022-09-30T17:35:09;8.27;;;2.70;;
52274;SDS011;38228;50.940;4.024;2022-09-30T17:37:36;6.15;;;2.63;;
52274;SDS011;38228;50.940;4.024;2022-09-30T17:40:03;4.85;;;2.50;;
52274;SDS011;38228;50.940;4.024;2022-09-30T17:42:49;4.47;;;2.65;;
52274;SDS011;38228;50.940;4.024;2022-09-30T17:45:34;7.15;;;2.63;;
52274;SDS011;38228;50.940;4.024;2022-09-30T17:48:00;3.92;;;2.40;;
52274;SDS011;38228;50.940;4.024;2022-09-30T17:50:27;4.78;;;2.33;;
52274;SDS011;38228;50.940;4.024;2022-09-30T17:52:53;5.13;;;2.03;;
52274;SDS011;38228;50.940;4.024;2022-09-30T17:55:19;5.28;;;2.33;;
52274;SDS011;38228;50.940;4.024;2022-09-30T17:57:45;8.27;;;2.55;;
52274;SDS011;38228;50.940;4.024;2022-09-30T18:00:11;3.50;;;2.55;;
52274;SDS011;38228;50.940;4.024;2022-09-30T18:02:37;11.65;;;2.67;;
52274;SDS011;38228;50.940;4.024;2022-09-30T18:05:04;5.10;;;2.28;;
52274;SDS011;38228;50.940;4.024;2022-09-30T18:07:30;5.13;;;2.65;;
52274;SDS011;38228;50.940;4.024;2022-09-30T18:09:56;5.00;;;2.30;;
52274;SDS011;38228;50.940;4.024;2022-09-30T18:12:21;7.78;;;2.30;;
52274;SDS011;38228;50.940;4.024;2022-09-30T18:14:47;4.13;;;2.30;;
52274;SDS011;38228;50.940;4.024;2022-09-30T18:17:13;6.50;;;2.35;;
52274;SDS011;38228;50.940;4.024;2022-09-30T18:19:38;4.38;;;2.40;;
52274;SDS011;38228;50.940;4.024;2022-09-30T18:22:04;5.57;;;2.70;;
52274;SDS011;38228;50.940;4.024;2022-09-30T18:24:30;4.75;;;2.50;;